Time;durP1;ratioP1;P1;durP2;ratioP2;P2;SDS_P1;SDS_P2;PMS_P1;PMS_P2;Temp;Humidity;BMP_temperature;BMP_pressure;BME280_temperature;BME280_humidity;BME280_pressure;Samples;Min_cycle;Max_cycle;Signal;HPM_P1;HPM_P2
2023/06/21 00:00:51;;;;;;;16.63;11.57;;;;;;;;;;5032294;28;20045;-78
2023/06/21 00:03:18;;;;;;;12.05;11.05;;;;;;;;;;5032677;28;20050;-78
2023/06/21 00:05:44;;;;;;;11.65;10.88;;;;;;;;;;5032570;28;20049;-78
2023/06/21 00:08:11;;;;;;;12.05;11.20;;;;;;;;;;5032549;28;20092;-78
2023/06/21 00:10:37;;;;;;;11.90;11.10;;;;;;;;;;5032517;28;20055;-78
2023/06/21 00:13:03;;;;;;;11.77;10.98;;;;;;;;;;5032555;28;20045;-78
2023/06/21 00:15:29;;;;;;;12.27;11.38;;;;;;;;;;5032568;28;20041;-78
2023/06/21 00:17:56;;;;;;;13.55;12.50;;;;;;;;;;5033240;28;20049;-78
2023/06/21 00:20:22;;;;;;;11.25;10.45;;;;;;;;;;5032494;28;20124;-78
2023/06/21 00:22:55;;;;;;;11.02;10.32;;;;;;;;;;5032446;28;20512;-78
2023/06/21 00:25:21;;;;;;;10.82;10.30;;;;;;;;;;5033443;28;20132;-78
2023/06/21 00:27:47;;;;;;;12.07;11.10;;;;;;;;;;5032095;28;20046;-79
2023/06/21 00:30:13;;;;;;;12.38;11.48;;;;;;;;;;5032394;28;20100;-79
2023/06/21 00:32:39;;;;;;;12.50;11.63;;;;;;;;;;5032591;28;20046;-79
2023/06/21 00:35:06;;;;;;;11.40;10.70;;;;;;;;;;5032314;28;20469;-79
2023/06/21 00:37:32;;;;;;;12.70;11.90;;;;;;;;;;5032330;28;20404;-79
2023/06/21 00:39:58;;;;;;;12.25;11.45;;;;;;;;;;5016467;28;20042;-79
2023/06/21 00:42:24;;;;;;;14.30;13.05;;;;;;;;;;5019210;28;20038;-79
2023/06/21 00:44:50;;;;;;;12.52;11.63;;;;;;;;;;5036042;28;20493;-79
2023/06/21 00:47:18;;;;;;;13.25;12.32;;;;;;;;;;5035940;28;20045;-79
2023/06/21 00:49:44;;;;;;;13.18;12.27;;;;;;;;;;5036295;28;20049;-79
2023/06/21 00:52:10;;;;;;;13.80;12.88;;;;;;;;;;5003291;28;20088;-79
2023/06/21 00:54:37;;;;;;;13.30;12.35;;;;;;;;;;5035883;28;20099;-79
2023/06/21 00:57:03;;;;;;;13.73;12.85;;;;;;;;;;5019347;28;20050;-79
2023/06/21 00:59:29;;;;;;;16.92;15.70;;;;;;;;;;5019152;28;20049;-79
2023/06/21 01:01:56;;;;;;;14.10;13.13;;;;;;;;;;5035720;28;20492;-79
2023/06/21 01:04:26;;;;;;;14.90;13.63;;;;;;;;;;5035064;28;20481;-79
2023/06/21 01:06:58;;;;;;;15.43;14.32;;;;;;;;;;5035650;28;20084;-78
2023/06/21 01:09:33;;;;;;;14.65;13.45;;;;;;;;;;5019378;28;20061;-79
2023/06/21 01:12:08;;;;;;;15.57;14.48;;;;;;;;;;5035547;28;20054;-79
2023/06/21 01:14:53;;;;;;;18.83;17.13;;;;;;;;;;5035475;28;20566;-79
2023/06/21 01:17:21;;;;;;;16.27;15.18;;;;;;;;;;5035371;28;20045;-79
2023/06/21 01:19:51;;;;;;;16.30;15.20;;;;;;;;;;5036036;28;20049;-78
2023/06/21 01:22:47;;;;;;;17.13;15.82;;;;;;;;;;5035277;28;20123;-78
2023/06/21 01:25:31;;;;;;;18.95;17.50;;;;;;;;;;4983799;28;20050;-78
2023/06/21 01:28:01;;;;;;;17.73;16.23;;;;;;;;;;5035051;28;20041;-79
2023/06/21 01:30:30;;;;;;;17.05;15.85;;;;;;;;;;5035108;28;20069;-78
2023/06/21 01:32:56;;;;;;;17.90;16.60;;;;;;;;;;5035172;28;20507;-78
2023/06/21 01:35:24;;;;;;;17.48;16.27;;;;;;;;;;5035375;28;20132;-79
2023/06/21 01:37:50;;;;;;;18.40;17.10;;;;;;;;;;5035069;28;20068;-78
2023/06/21 01:40:16;;;;;;;19.40;17.90;;;;;;;;;;5035918;28;20048;-78
2023/06/21 01:42:42;;;;;;;20.85;19.23;;;;;;;;;;5034982;28;20188;-78
2023/06/21 01:45:09;;;;;;;18.10;16.83;;;;;;;;;;5034984;28;20041;-78
2023/06/21 01:47:36;;;;;;;19.08;17.58;;;;;;;;;;5035109;28;20476;-78
2023/06/21 01:50:03;;;;;;;19.83;18.27;;;;;;;;;;5035799;28;20041;-79
2023/06/21 01:52:30;;;;;;;20.75;19.05;;;;;;;;;;5034213;28;20080;-78
2023/06/21 01:54:56;;;;;;;20.80;19.15;;;;;;;;;;5018890;28;20060;-78
2023/06/21 01:57:23;;;;;;;20.65;19.02;;;;;;;;;;5035715;28;20057;-78
2023/06/21 01:59:50;;;;;;;21.50;19.80;;;;;;;;;;5034722;28;20041;-78
2023/06/21 02:02:16;;;;;;;22.17;20.38;;;;;;;;;;5034594;28;20504;-78
2023/06/21 02:04:44;;;;;;;22.77;21.05;;;;;;;;;;5018100;28;20045;-78
2023/06/21 02:07:13;;;;;;;21.90;20.00;;;;;;;;;;5034548;28;20049;-78
2023/06/21 02:09:40;;;;;;;21.75;19.95;;;;;;;;;;5034749;28;20049;-78
2023/06/21 02:12:07;;;;;;;21.75;20.13;;;;;;;;;;5034274;28;20045;-78
2023/06/21 02:14:33;;;;;;;22.55;20.83;;;;;;;;;;5034392;28;20064;-78
2023/06/21 02:16:59;;;;;;;24.85;22.95;;;;;;;;;;5018047;28;20061;-78
2023/06/21 02:19:25;;;;;;;26.55;24.17;;;;;;;;;;5034422;28;20049;-78
2023/06/21 02:21:51;;;;;;;30.30;27.75;;;;;;;;;;5034123;28;20063;-78
2023/06/21 02:24:17;;;;;;;31.17;28.77;;;;;;;;;;5034977;28;20425;-78
2023/06/21 02:26:44;;;;;;;33.53;30.83;;;;;;;;;;5034145;28;20045;-78
2023/06/21 02:29:10;;;;;;;36.38;33.05;;;;;;;;;;5034331;28;20088;-78
2023/06/21 02:31:36;;;;;;;31.95;29.45;;;;;;;;;;5034049;28;20049;-78
2023/06/21 02:34:02;;;;;;;30.38;28.05;;;;;;;;;;5017305;28;20416;-78
2023/06/21 02:36:29;;;;;;;32.58;30.00;;;;;;;;;;5033648;28;20049;-78
2023/06/21 02:38:55;;;;;;;31.70;29.17;;;;;;;;;;5033853;28;20052;-78
2023/06/21 02:41:21;;;;;;;33.20;30.50;;;;;;;;;;5033816;28;20045;-78
2023/06/21 02:43:47;;;;;;;35.03;31.88;;;;;;;;;;5033828;28;20045;-78
2023/06/21 02:46:13;;;;;;;31.15;28.65;;;;;;;;;;5033691;28;20496;-78
2023/06/21 02:48:39;;;;;;;33.38;30.77;;;;;;;;;;5034582;28;20381;-78
2023/06/21 02:51:05;;;;;;;36.47;33.38;;;;;;;;;;5033710;28;20050;-78
2023/06/21 02:53:31;;;;;;;32.75;30.00;;;;;;;;;;5033592;28;20046;-78
2023/06/21 02:55:58;;;;;;;37.78;34.30;;;;;;;;;;5033554;28;20100;-78
2023/06/21 02:58:24;;;;;;;32.30;29.73;;;;;;;;;;5033546;28;20046;-78
2023/06/21 03:00:50;;;;;;;34.10;31.45;;;;;;;;;;5033126;28;20105;-78
2023/06/21 03:03:17;;;;;;;32.78;30.02;;;;;;;;;;5034186;28;20123;-78
2023/06/21 03:05:43;;;;;;;31.80;29.38;;;;;;;;;;5033713;28;20057;-78
2023/06/21 03:08:09;;;;;;;31.48;29.08;;;;;;;;;;5017122;28;20045;-78
2023/06/21 03:10:36;;;;;;;34.05;31.17;;;;;;;;;;5033344;28;20136;-81
2023/06/21 03:13:03;;;;;;;35.05;32.05;;;;;;;;;;5033535;28;20052;-78
2023/06/21 03:15:29;;;;;;;36.00;32.90;;;;;;;;;;5033282;28;20084;-78
2023/06/21 03:17:55;;;;;;;33.85;31.20;;;;;;;;;;5033164;28;20128;-78
2023/06/21 03:20:24;;;;;;;33.88;31.20;;;;;;;;;;5032739;28;20103;-78
2023/06/21 03:22:51;;;;;;;34.83;31.83;;;;;;;;;;5033952;28;20057;-78
2023/06/21 03:25:17;;;;;;;34.20;31.40;;;;;;;;;;5033092;28;20046;-78
2023/06/21 03:27:43;;;;;;;34.15;31.55;;;;;;;;;;5033315;28;20061;-78
2023/06/21 03:30:11;;;;;;;34.60;31.77;;;;;;;;;;5033290;28;20050;-79
2023/06/21 03:32:38;;;;;;;34.10;31.50;;;;;;;;;;5033009;28;20453;-79
2023/06/21 03:35:04;;;;;;;34.45;31.67;;;;;;;;;;5032974;28;20056;-79
2023/06/21 03:37:30;;;;;;;34.47;31.67;;;;;;;;;;5032915;28;20140;-79
2023/06/21 03:39:56;;;;;;;36.33;33.20;;;;;;;;;;5032738;28;20068;-79
2023/06/21 03:42:22;;;;;;;35.97;33.03;;;;;;;;;;5016181;28;20435;-79
2023/06/21 03:44:48;;;;;;;35.80;32.95;;;;;;;;;;5032826;28;20071;-79
2023/06/21 03:47:14;;;;;;;35.00;32.10;;;;;;;;;;5016537;28;20056;-79
2023/06/21 03:49:40;;;;;;;38.30;35.00;;;;;;;;;;5016316;28;20132;-80
2023/06/21 03:52:07;;;;;;;36.90;33.90;;;;;;;;;;5032553;28;20132;-80
2023/06/21 03:54:33;;;;;;;35.85;32.90;;;;;;;;;;5032876;28;20143;-79
2023/06/21 03:56:59;;;;;;;38.00;34.95;;;;;;;;;;5033414;28;20068;-79
2023/06/21 03:59:25;;;;;;;36.47;33.30;;;;;;;;;;5033346;28;20045;-79
2023/06/21 04:01:51;;;;;;;38.83;35.70;;;;;;;;;;5032629;28;20042;-79
2023/06/21 04:04:17;;;;;;;37.72;34.60;;;;;;;;;;5032317;28;20128;-79
2023/06/21 04:06:43;;;;;;;37.35;34.25;;;;;;;;;;5033414;28;20381;-79
2023/06/21 04:09:09;;;;;;;42.30;38.35;;;;;;;;;;5033607;28;20520;-79
2023/06/21 04:11:35;;;;;;;38.25;35.15;;;;;;;;;;5033323;28;20060;-79
2023/06/21 04:14:01;;;;;;;37.80;34.70;;;;;;;;;;5034037;28;20072;-80
2023/06/21 04:16:27;;;;;;;41.38;37.58;;;;;;;;;;5034506;28;20056;-80
2023/06/21 04:18:55;;;;;;;39.28;36.08;;;;;;;;;;5037288;28;20458;-79
2023/06/21 04:21:21;;;;;;;40.30;36.92;;;;;;;;;;5037002;28;20168;-79
2023/06/21 04:23:47;;;;;;;40.88;37.38;;;;;;;;;;5019985;28;20084;-80
2023/06/21 04:26:13;;;;;;;41.78;38.15;;;;;;;;;;5036251;28;20130;-79
2023/06/21 04:28:40;;;;;;;41.08;37.63;;;;;;;;;;5036321;28;20080;-79
2023/06/21 04:31:06;;;;;;;40.40;36.97;;;;;;;;;;5037064;28;20049;-79
2023/06/21 04:33:32;;;;;;;40.38;36.90;;;;;;;;;;5036017;28;20119;-79
2023/06/21 04:35:58;;;;;;;40.38;36.88;;;;;;;;;;5035925;28;20051;-80
2023/06/21 04:38:24;;;;;;;42.47;38.78;;;;;;;;;;5003396;28;20042;-80
2023/06/21 04:40:52;;;;;;;42.55;39.03;;;;;;;;;;5035769;28;20512;-80
2023/06/21 04:43:18;;;;;;;41.97;38.22;;;;;;;;;;5019616;28;20045;-79
2023/06/21 04:45:48;;;;;;;41.47;38.08;;;;;;;;;;5035442;28;20519;-79
2023/06/21 04:48:14;;;;;;;40.95;37.55;;;;;;;;;;5036649;28;20132;-79
2023/06/21 04:50:45;;;;;;;47.70;42.85;;;;;;;;;;5036162;28;20050;-79
2023/06/21 04:53:12;;;;;;;43.05;39.53;;;;;;;;;;5036193;28;20045;-80
2023/06/21 04:55:42;;;;;;;41.70;38.17;;;;;;;;;;5036640;28;20052;-79
2023/06/21 04:58:09;;;;;;;43.10;39.25;;;;;;;;;;5036166;28;20120;-80
2023/06/21 05:00:35;;;;;;;41.80;38.20;;;;;;;;;;5035485;28;20053;-80
2023/06/21 05:03:01;;;;;;;41.17;37.70;;;;;;;;;;5036494;28;20049;-80
2023/06/21 05:05:27;;;;;;;41.30;37.70;;;;;;;;;;5035888;28;20440;-79
2023/06/21 05:07:54;;;;;;;40.50;37.20;;;;;;;;;;5036330;28;20072;-79
2023/06/21 05:10:20;;;;;;;42.28;38.67;;;;;;;;;;5036321;28;20127;-80
2023/06/21 05:12:46;;;;;;;27.80;25.50;;;;;;;;;;5019078;28;20064;-75
2023/06/21 05:15:12;;;;;;;30.35;28.00;;;;;;;;;;5036535;28;20056;-76
2023/06/21 05:17:38;;;;;;;38.72;35.60;;;;;;;;;;5036324;28;20057;-75
2023/06/21 05:20:04;;;;;;;41.13;37.47;;;;;;;;;;5036306;28;20042;-76
2023/06/21 05:22:31;;;;;;;38.25;35.22;;;;;;;;;;5036959;28;20484;-76
2023/06/21 05:24:57;;;;;;;40.50;37.10;;;;;;;;;;5035069;28;20073;-76
2023/06/21 05:27:23;;;;;;;41.92;38.42;;;;;;;;;;5034954;28;20049;-75
2023/06/21 05:29:49;;;;;;;41.78;38.35;;;;;;;;;;5035580;28;20045;-75
2023/06/21 05:32:15;;;;;;;40.83;37.35;;;;;;;;;;5034941;28;20049;-75
2023/06/21 05:34:41;;;;;;;41.00;37.53;;;;;;;;;;5036103;28;20052;-80
2023/06/21 05:37:07;;;;;;;43.33;39.63;;;;;;;;;;5018576;28;20050;-80
2023/06/21 05:39:33;;;;;;;43.13;39.42;;;;;;;;;;5034933;28;20072;-80
2023/06/21 05:41:59;;;;;;;42.92;39.33;;;;;;;;;;5034999;28;20049;-80
2023/06/21 05:44:25;;;;;;;43.40;39.80;;;;;;;;;;5034749;28;20053;-80
2023/06/21 05:46:51;;;;;;;43.08;39.35;;;;;;;;;;5035655;28;20041;-80
2023/06/21 05:49:18;;;;;;;48.60;43.97;;;;;;;;;;5018750;28;20105;-80
2023/06/21 05:51:44;;;;;;;46.38;42.47;;;;;;;;;;5018595;28;20067;-80
2023/06/21 05:54:10;;;;;;;43.38;39.67;;;;;;;;;;5018291;28;20049;-81
2023/06/21 05:56:37;;;;;;;42.95;39.28;;;;;;;;;;5034772;28;20049;-79
2023/06/21 05:59:04;;;;;;;45.05;41.00;;;;;;;;;;5034583;28;20092;-80
2023/06/21 06:01:30;;;;;;;46.33;42.22;;;;;;;;;;5018924;28;20103;-79
2023/06/21 06:03:56;;;;;;;45.30;41.10;;;;;;;;;;5034607;28;20057;-80
2023/06/21 06:06:22;;;;;;;44.35;40.35;;;;;;;;;;5034986;28;20049;-80
2023/06/21 06:08:48;;;;;;;42.63;38.95;;;;;;;;;;5017846;28;20507;-80
2023/06/21 06:11:14;;;;;;;42.78;39.17;;;;;;;;;;5034178;28;20095;-80
2023/06/21 06:13:40;;;;;;;41.50;37.90;;;;;;;;;;5034377;28;20056;-80
2023/06/21 06:16:06;;;;;;;40.88;37.47;;;;;;;;;;5034175;28;20038;-79
2023/06/21 06:18:33;;;;;;;44.53;40.63;;;;;;;;;;5034010;28;20049;-80
2023/06/21 06:20:59;;;;;;;39.70;36.20;;;;;;;;;;5033573;28;20134;-79
2023/06/21 06:23:25;;;;;;;41.67;38.08;;;;;;;;;;5035595;28;20057;-79
2023/06/21 06:25:51;;;;;;;38.78;35.15;;;;;;;;;;5017724;28;20488;-79
2023/06/21 06:28:17;;;;;;;39.30;35.90;;;;;;;;;;5034149;28;20378;-79
2023/06/21 06:30:43;;;;;;;39.08;35.75;;;;;;;;;;5017615;28;20051;-79
2023/06/21 06:33:09;;;;;;;39.38;35.88;;;;;;;;;;5033585;28;20085;-79
2023/06/21 06:35:35;;;;;;;37.97;34.65;;;;;;;;;;5033412;28;20041;-79
2023/06/21 06:38:01;;;;;;;36.70;33.63;;;;;;;;;;5034494;28;20045;-79
2023/06/21 06:40:27;;;;;;;36.78;33.63;;;;;;;;;;5016829;28;20091;-78
2023/06/21 06:42:53;;;;;;;39.67;36.28;;;;;;;;;;5033579;28;20049;-79
2023/06/21 06:45:19;;;;;;;39.10;35.67;;;;;;;;;;5033779;28;20049;-78
2023/06/21 06:47:46;;;;;;;38.05;34.70;;;;;;;;;;5033930;28;20053;-78
2023/06/21 06:50:12;;;;;;;34.95;31.95;;;;;;;;;;5034295;28;20388;-78
2023/06/21 06:52:38;;;;;;;33.60;30.98;;;;;;;;;;5033739;28;20048;-78
2023/06/21 06:55:04;;;;;;;37.35;34.05;;;;;;;;;;5033651;28;20091;-79
2023/06/21 06:57:30;;;;;;;33.58;30.70;;;;;;;;;;5033246;28;20092;-78
2023/06/21 06:59:56;;;;;;;32.78;29.98;;;;;;;;;;5034200;28;20041;-78
2023/06/21 07:02:22;;;;;;;36.53;33.55;;;;;;;;;;5033489;28;20060;-78
2023/06/21 07:04:48;;;;;;;29.60;27.23;;;;;;;;;;5033394;28;20053;-79
2023/06/21 07:07:14;;;;;;;32.70;29.88;;;;;;;;;;5034205;28;20045;-78
2023/06/21 07:09:40;;;;;;;30.63;28.23;;;;;;;;;;5034120;28;20055;-78
2023/06/21 07:12:07;;;;;;;34.33;31.35;;;;;;;;;;5034099;28;20045;-78
2023/06/21 07:14:33;;;;;;;31.98;29.25;;;;;;;;;;5033574;28;20366;-78
2023/06/21 07:16:59;;;;;;;33.08;30.27;;;;;;;;;;5016762;28;20049;-78
2023/06/21 07:19:25;;;;;;;32.80;29.92;;;;;;;;;;5033045;28;20482;-79
2023/06/21 07:21:51;;;;;;;29.85;27.38;;;;;;;;;;5032599;28;20068;-79
2023/06/21 07:24:17;;;;;;;30.90;28.20;;;;;;;;;;5033147;28;20084;-79
2023/06/21 07:26:43;;;;;;;30.10;27.70;;;;;;;;;;5016666;28;20049;-79
2023/06/21 07:29:09;;;;;;;31.90;29.30;;;;;;;;;;5033299;28;20060;-78
2023/06/21 07:31:35;;;;;;;32.72;29.90;;;;;;;;;;5033028;28;20045;-79
2023/06/21 07:34:01;;;;;;;29.73;27.33;;;;;;;;;;5016503;28;20099;-79
2023/06/21 07:36:28;;;;;;;28.17;25.92;;;;;;;;;;5032939;28;20049;-79
2023/06/21 07:38:54;;;;;;;29.15;26.88;;;;;;;;;;5033587;28;20049;-79
2023/06/21 07:41:20;;;;;;;28.60;26.40;;;;;;;;;;5016626;28;20042;-79
2023/06/21 07:43:46;;;;;;;29.42;26.95;;;;;;;;;;5032486;28;20485;-79
2023/06/21 07:46:12;;;;;;;25.08;23.17;;;;;;;;;;5033584;28;20107;-79
2023/06/21 07:48:39;;;;;;;26.85;24.60;;;;;;;;;;5033493;28;20046;-79
2023/06/21 07:51:05;;;;;;;26.13;24.02;;;;;;;;;;5032288;28;20046;-79
2023/06/21 07:53:32;;;;;;;28.77;26.30;;;;;;;;;;5032704;28;20120;-78
2023/06/21 07:56:01;;;;;;;26.48;24.42;;;;;;;;;;5032664;28;20130;-79
2023/06/21 07:58:27;;;;;;;22.05;20.35;;;;;;;;;;5033473;28;20049;-79
2023/06/21 08:00:54;;;;;;;22.10;20.50;;;;;;;;;;5032364;28;20045;-79
2023/06/21 08:03:20;;;;;;;19.75;18.38;;;;;;;;;;5032951;28;20120;-79
2023/06/21 08:05:46;;;;;;;24.77;22.83;;;;;;;;;;5032606;28;20053;-79
2023/06/21 08:08:12;;;;;;;22.58;20.85;;;;;;;;;;5016101;28;20092;-79
2023/06/21 08:10:38;;;;;;;18.75;17.15;;;;;;;;;;5016368;28;20045;-79
2023/06/21 08:13:04;;;;;;;18.20;16.88;;;;;;;;;;5032216;28;20076;-78
2023/06/21 08:15:30;;;;;;;20.65;19.05;;;;;;;;;;5032205;28;20053;-78
2023/06/21 08:17:57;;;;;;;18.13;16.83;;;;;;;;;;5016302;28;20499;-78
2023/06/21 08:20:23;;;;;;;17.85;16.55;;;;;;;;;;5032746;28;20045;-78
2023/06/21 08:22:49;;;;;;;18.02;16.52;;;;;;;;;;5015740;28;20060;-78
2023/06/21 08:25:15;;;;;;;17.08;15.77;;;;;;;;;;5034099;28;20440;-78
2023/06/21 08:27:41;;;;;;;17.55;16.25;;;;;;;;;;5032620;28;20061;-78
2023/06/21 08:30:07;;;;;;;15.90;14.70;;;;;;;;;;4999727;28;20052;-78
2023/06/21 08:32:33;;;;;;;15.70;14.52;;;;;;;;;;5031986;28;20477;-78
2023/06/21 08:34:59;;;;;;;17.02;15.52;;;;;;;;;;5032566;28;20049;-79
2023/06/21 08:37:25;;;;;;;18.38;16.90;;;;;;;;;;5032153;28;20099;-79
2023/06/21 08:39:52;;;;;;;17.25;16.00;;;;;;;;;;5031725;28;20042;-79
2023/06/21 08:42:19;;;;;;;14.80;13.70;;;;;;;;;;5032216;28;20136;-79
2023/06/21 08:44:46;;;;;;;13.90;12.82;;;;;;;;;;5015433;28;20052;-79
2023/06/21 08:47:13;;;;;;;15.02;13.80;;;;;;;;;;5031932;28;20049;-79
2023/06/21 08:49:40;;;;;;;12.05;11.15;;;;;;;;;;5032161;28;20053;-79
2023/06/21 08:52:09;;;;;;;11.55;10.65;;;;;;;;;;5032430;28;20045;-80
2023/06/21 08:54:36;;;;;;;11.85;11.05;;;;;;;;;;5032096;28;20048;-85
2023/06/21 08:57:05;;;;;;;14.30;13.20;;;;;;;;;;4999461;28;20079;-80
2023/06/21 08:59:36;;;;;;;14.43;13.30;;;;;;;;;;5031989;28;20097;-79
2023/06/21 09:02:14;;;;;;;13.13;12.23;;;;;;;;;;5033327;28;20045;-80
2023/06/21 09:04:44;;;;;;;15.27;14.07;;;;;;;;;;5037301;28;20061;-78
2023/06/21 09:07:11;;;;;;;14.48;13.52;;;;;;;;;;5037394;28;20419;-79
2023/06/21 09:09:37;;;;;;;14.32;13.32;;;;;;;;;;5035677;28;20049;-79
2023/06/21 09:12:04;;;;;;;14.13;12.93;;;;;;;;;;5035457;28;20096;-79
2023/06/21 09:14:31;;;;;;;12.70;11.77;;;;;;;;;;5035483;28;20426;-79
2023/06/21 09:17:01;;;;;;;12.57;11.77;;;;;;;;;;5035105;28;20397;-79
2023/06/21 09:19:28;;;;;;;12.63;11.63;;;;;;;;;;5035291;28;20045;-79
2023/06/21 09:21:56;;;;;;;12.55;11.75;;;;;;;;;;5018246;28;20057;-79
2023/06/21 09:24:22;;;;;;;12.95;12.05;;;;;;;;;;5035869;28;20428;-79
2023/06/21 09:26:49;;;;;;;11.90;10.85;;;;;;;;;;5035224;28;20492;-79
2023/06/21 09:29:16;;;;;;;10.48;9.68;;;;;;;;;;5019534;28;20538;-79
2023/06/21 09:31:42;;;;;;;9.48;8.70;;;;;;;;;;5034894;28;20445;-80
2023/06/21 09:34:08;;;;;;;10.32;9.55;;;;;;;;;;5018883;28;20045;-79
2023/06/21 09:36:34;;;;;;;9.05;8.45;;;;;;;;;;5035339;28;20400;-80
2023/06/21 09:39:10;;;;;;;8.63;8.00;;;;;;;;;;5034929;28;20053;-80
2023/06/21 09:41:37;;;;;;;8.02;7.57;;;;;;;;;;5018419;28;20096;-80
2023/06/21 09:44:03;;;;;;;7.30;6.65;;;;;;;;;;5034940;28;20209;-80
2023/06/21 09:46:29;;;;;;;7.47;7.00;;;;;;;;;;5035161;28;20056;-80
2023/06/21 09:49:06;;;;;;;8.75;8.10;;;;;;;;;;5034972;28;20496;-80
2023/06/21 09:51:32;;;;;;;8.70;7.97;;;;;;;;;;5036373;28;20045;-80
2023/06/21 09:53:58;;;;;;;7.97;7.43;;;;;;;;;;5034747;28;20045;-80
2023/06/21 09:56:24;;;;;;;7.65;7.18;;;;;;;;;;5034705;28;20400;-80
2023/06/21 09:58:52;;;;;;;7.88;7.38;;;;;;;;;;5018276;28;20053;-80
2023/06/21 10:01:18;;;;;;;6.82;6.32;;;;;;;;;;5034663;28;20349;-80
2023/06/21 10:03:45;;;;;;;7.15;6.60;;;;;;;;;;5034535;28;20049;-81
2023/06/21 10:06:16;;;;;;;8.43;7.53;;;;;;;;;;5017726;28;20393;-80
2023/06/21 10:08:42;;;;;;;7.72;7.30;;;;;;;;;;5035293;28;20053;-80
2023/06/21 10:11:09;;;;;;;7.05;6.65;;;;;;;;;;5017515;28;20060;-80
2023/06/21 10:13:38;;;;;;;6.43;6.10;;;;;;;;;;5034728;28;20049;-80
2023/06/21 10:16:05;;;;;;;8.25;7.65;;;;;;;;;;5034557;28;20049;-80
2023/06/21 10:18:34;;;;;;;7.38;6.97;;;;;;;;;;5034428;28;20139;-80
2023/06/21 10:21:04;;;;;;;9.63;8.80;;;;;;;;;;5033757;28;20057;-80
2023/06/21 10:23:31;;;;;;;9.00;8.40;;;;;;;;;;5034152;28;20057;-81
2023/06/21 10:26:08;;;;;;;8.43;7.72;;;;;;;;;;5034410;28;20046;-80
2023/06/21 10:28:39;;;;;;;7.78;7.07;;;;;;;;;;5017753;28;20064;-80
2023/06/21 10:31:08;;;;;;;8.38;7.68;;;;;;;;;;5017574;28;20474;-80
2023/06/21 10:33:35;;;;;;;7.45;6.93;;;;;;;;;;5034025;28;20060;-81
2023/06/21 10:36:02;;;;;;;8.57;8.07;;;;;;;;;;5033832;28;20049;-81
2023/06/21 10:38:39;;;;;;;6.18;5.78;;;;;;;;;;5017507;28;20054;-80
2023/06/21 10:41:06;;;;;;;6.18;5.82;;;;;;;;;;5033882;28;20110;-80
2023/06/21 10:43:33;;;;;;;6.25;5.95;;;;;;;;;;5017615;28;20045;-81
2023/06/21 10:45:59;;;;;;;5.40;5.00;;;;;;;;;;5034078;28;20053;-80
2023/06/21 10:48:26;;;;;;;6.03;5.60;;;;;;;;;;5033710;28;20088;-80
2023/06/21 10:50:53;;;;;;;5.47;5.18;;;;;;;;;;5033436;28;20492;-80
2023/06/21 10:53:19;;;;;;;4.40;4.18;;;;;;;;;;5016876;28;20060;-80
2023/06/21 10:55:46;;;;;;;4.97;4.57;;;;;;;;;;5034422;28;20047;-81
2023/06/21 10:58:16;;;;;;;5.05;4.75;;;;;;;;;;5033584;28;20054;-80
2023/06/21 11:00:47;;;;;;;4.15;3.85;;;;;;;;;;5016779;28;20041;-80
2023/06/21 11:03:16;;;;;;;5.05;4.65;;;;;;;;;;5033544;28;20053;-80
2023/06/21 11:05:43;;;;;;;5.68;5.38;;;;;;;;;;5033748;28;20055;-81
2023/06/21 11:08:09;;;;;;;6.85;6.45;;;;;;;;;;5033597;28;20053;-79
2023/06/21 11:10:46;;;;;;;7.95;7.30;;;;;;;;;;5016981;28;20053;-80
2023/06/21 11:13:12;;;;;;;7.68;7.13;;;;;;;;;;5016861;28;20370;-80
2023/06/21 11:15:40;;;;;;;6.28;5.82;;;;;;;;;;5033293;28;20045;-81
2023/06/21 11:18:06;;;;;;;5.40;5.10;;;;;;;;;;5017077;28;20390;-80
2023/06/21 11:20:43;;;;;;;6.25;5.65;;;;;;;;;;5032555;28;20049;-80
2023/06/21 11:23:10;;;;;;;5.05;4.75;;;;;;;;;;5032940;28;20532;-80
2023/06/21 11:25:36;;;;;;;3.47;3.28;;;;;;;;;;5031917;28;20413;-80
2023/06/21 11:28:14;;;;;;;5.55;4.38;;;;;;;;;;5033098;28;20042;-80
2023/06/21 11:31:00;;;;;;;4.47;4.18;;;;;;;;;;5032767;28;20499;-81
2023/06/21 11:33:29;;;;;;;2.88;2.78;;;;;;;;;;5032878;28;20045;-79
2023/06/21 11:36:07;;;;;;;2.72;2.53;;;;;;;;;;5032971;28;20049;-80
2023/06/21 11:38:35;;;;;;;3.30;3.03;;;;;;;;;;5032920;28;20037;-80
2023/06/21 11:41:01;;;;;;;2.63;2.42;;;;;;;;;;5033125;28;20084;-80
2023/06/21 11:43:28;;;;;;;4.38;4.07;;;;;;;;;;5032820;28;20474;-80
2023/06/21 11:46:00;;;;;;;4.32;4.13;;;;;;;;;;5033623;28;20049;-81
2023/06/21 11:48:26;;;;;;;3.50;3.40;;;;;;;;;;5032401;28;20060;-81
2023/06/21 11:50:55;;;;;;;2.72;2.63;;;;;;;;;;5032650;28;20107;-81
2023/06/21 11:53:28;;;;;;;2.80;2.70;;;;;;;;;;5032960;28;20041;-81
2023/06/21 11:55:54;;;;;;;2.45;2.35;;;;;;;;;;5033513;28;20056;-82
2023/06/21 11:58:21;;;;;;;2.90;2.80;;;;;;;;;;5033625;28;20054;-81
2023/06/21 12:00:47;;;;;;;3.20;3.00;;;;;;;;;;5016742;28;20481;-81
2023/06/21 12:03:14;;;;;;;2.97;2.83;;;;;;;;;;5016949;28;20055;-81
2023/06/21 12:05:56;;;;;;;2.83;2.63;;;;;;;;;;5034138;28;20049;-82
2023/06/21 12:08:26;;;;;;;2.30;2.10;;;;;;;;;;5016931;28;20046;-82
2023/06/21 12:10:52;;;;;;;1.50;1.40;;;;;;;;;;5016923;28;20381;-81
2023/06/21 12:13:19;;;;;;;0.85;0.85;;;;;;;;;;5032425;28;20140;-82
2023/06/21 12:15:52;;;;;;;1.52;1.30;;;;;;;;;;5033293;28;20421;-82
2023/06/21 12:18:18;;;;;;;1.23;0.98;;;;;;;;;;5032933;28;20497;-81
2023/06/21 12:20:45;;;;;;;0.93;0.50;;;;;;;;;;5015508;28;20053;-82
2023/06/21 12:23:11;;;;;;;1.30;0.60;;;;;;;;;;5033784;28;20495;-81
2023/06/21 12:25:44;;;;;;;1.15;0.50;;;;;;;;;;5016136;28;20053;-82
2023/06/21 12:28:12;;;;;;;0.77;0.60;;;;;;;;;;5016017;28;20507;-81
2023/06/21 12:30:53;;;;;;;1.30;0.50;;;;;;;;;;5033445;28;20046;-81
2023/06/21 12:33:19;;;;;;;1.33;0.40;;;;;;;;;;5033316;28;20111;-80
2023/06/21 12:35:45;;;;;;;0.98;0.65;;;;;;;;;;5032051;28;20061;-82
2023/06/21 12:38:18;;;;;;;1.98;0.50;;;;;;;;;;5035183;28;20056;-81
2023/06/21 12:40:54;;;;;;;0.50;0.40;;;;;;;;;;5036189;28;20049;-81
2023/06/21 12:43:39;;;;;;;1.42;0.80;;;;;;;;;;5036233;28;20073;-80
2023/06/21 12:46:05;;;;;;;0.50;0.40;;;;;;;;;;5036862;28;20077;-81
2023/06/21 12:48:32;;;;;;;1.88;0.50;;;;;;;;;;5036797;28;20037;-81
2023/06/21 12:50:58;;;;;;;1.38;0.47;;;;;;;;;;5036254;28;20120;-81
2023/06/21 12:53:25;;;;;;;1.13;0.50;;;;;;;;;;5019785;28;20052;-81
2023/06/21 12:55:51;;;;;;;2.05;1.40;;;;;;;;;;5035844;28;20046;-80
2023/06/21 12:58:19;;;;;;;2.22;2.08;;;;;;;;;;5036767;28;20053;-80
2023/06/21 13:00:46;;;;;;;3.20;1.38;;;;;;;;;;5035517;28;20049;-82
2023/06/21 13:03:12;;;;;;;2.20;2.00;;;;;;;;;;5036525;28;20128;-81
2023/06/21 13:05:38;;;;;;;2.10;1.90;;;;;;;;;;5035418;28;20563;-81
2023/06/21 13:08:04;;;;;;;1.83;1.73;;;;;;;;;;5035648;28;20495;-81
2023/06/21 13:10:30;;;;;;;1.52;1.42;;;;;;;;;;5035664;28;20403;-80
2023/06/21 13:12:56;;;;;;;1.60;1.02;;;;;;;;;;5035568;28;20045;-80
2023/06/21 13:15:22;;;;;;;2.88;0.63;;;;;;;;;;5035145;28;20481;-80
2023/06/21 13:17:48;;;;;;;3.22;0.63;;;;;;;;;;5035040;28;20103;-80
2023/06/21 13:20:16;;;;;;;3.78;0.70;;;;;;;;;;5035195;28;20131;-80
2023/06/21 13:22:42;;;;;;;1.27;0.50;;;;;;;;;;5034934;28;20141;-80
2023/06/21 13:25:08;;;;;;;0.60;0.60;;;;;;;;;;5018785;28;20049;-80
2023/06/21 13:27:35;;;;;;;0.60;0.45;;;;;;;;;;5018820;28;20049;-81
2023/06/21 13:30:03;;;;;;;0.75;0.70;;;;;;;;;;5018732;28;20103;-81
2023/06/21 13:32:29;;;;;;;1.70;1.58;;;;;;;;;;5035990;28;20053;-81
2023/06/21 13:34:55;;;;;;;2.10;1.85;;;;;;;;;;5019292;28;20050;-80
2023/06/21 13:37:21;;;;;;;2.00;1.90;;;;;;;;;;5018645;28;20037;-80
2023/06/21 13:39:47;;;;;;;2.95;1.48;;;;;;;;;;5034907;28;20076;-80
2023/06/21 13:42:14;;;;;;;1.50;1.40;;;;;;;;;;5034997;28;20436;-80
2023/06/21 13:44:40;;;;;;;1.08;0.80;;;;;;;;;;5035786;28;20053;-80
2023/06/21 13:47:06;;;;;;;0.85;0.80;;;;;;;;;;5034587;28;20084;-81
2023/06/21 13:49:32;;;;;;;1.80;0.95;;;;;;;;;;5033789;28;20050;-81
2023/06/21 13:51:58;;;;;;;1.48;1.23;;;;;;;;;;5034869;28;20045;-80
2023/06/21 13:54:24;;;;;;;2.70;1.65;;;;;;;;;;5034789;28;20110;-80
2023/06/21 13:56:50;;;;;;;1.90;1.30;;;;;;;;;;5035582;28;20068;-80
2023/06/21 13:59:16;;;;;;;0.57;0.57;;;;;;;;;;5018154;28;20053;-80
2023/06/21 14:01:42;;;;;;;1.70;0.50;;;;;;;;;;5034577;28;20041;-80
2023/06/21 14:04:08;;;;;;;1.15;0.70;;;;;;;;;;5017842;28;20049;-80
2023/06/21 14:06:34;;;;;;;1.10;0.68;;;;;;;;;;5033954;28;20132;-80
2023/06/21 14:09:00;;;;;;;0.93;0.60;;;;;;;;;;5034308;28;20049;-80
2023/06/21 14:11:26;;;;;;;0.85;0.60;;;;;;;;;;5017855;28;20136;-80
2023/06/21 14:13:52;;;;;;;0.80;0.60;;;;;;;;;;5034317;28;20041;-80
2023/06/21 14:16:19;;;;;;;0.98;0.47;;;;;;;;;;5034525;28;20045;-80
2023/06/21 14:18:45;;;;;;;1.55;0.77;;;;;;;;;;5034502;28;20045;-80
2023/06/21 14:21:11;;;;;;;0.60;0.50;;;;;;;;;;5033374;28;20068;-80
2023/06/21 14:23:37;;;;;;;3.38;0.80;;;;;;;;;;5034050;28;20045;-81
2023/06/21 14:26:03;;;;;;;0.95;0.60;;;;;;;;;;5033635;28;20069;-81